createdAt,value
2022-12-23T00:00:28.372Z,18.95
2022-12-23T00:02:55.266Z,20.88
2022-12-23T00:05:22.167Z,20.80
2022-12-23T00:07:48.934Z,23.27
2022-12-23T00:10:15.691Z,19.95
2022-12-23T00:13:00.859Z,19.33
2022-12-23T00:15:27.569Z,13.80
2022-12-23T00:17:54.217Z,19.30
2022-12-23T00:20:20.943Z,25.02
2022-12-23T00:23:05.726Z,20.42
2022-12-23T00:25:41.371Z,17.58
2022-12-23T00:28:11.708Z,20.27
2022-12-23T00:30:51.921Z,16.35
2022-12-23T00:33:27.782Z,16.23
2022-12-23T00:35:54.929Z,17.95
2022-12-23T00:38:51.409Z,17.00
2022-12-23T00:41:37.386Z,18.83
2022-12-23T00:44:04.716Z,16.63
2022-12-23T00:46:32.016Z,17.85
2022-12-23T00:49:17.689Z,17.77
2022-12-23T00:51:44.565Z,18.00
2022-12-23T00:54:11.310Z,20.45
2022-12-23T00:56:37.971Z,15.10
2022-12-23T00:59:04.706Z,13.43
2022-12-23T01:01:50.197Z,15.20
2022-12-23T01:04:36.132Z,16.20
2022-12-23T01:07:03.971Z,17.52
2022-12-23T01:09:31.085Z,16.30
2022-12-23T01:11:58.043Z,18.80
2022-12-23T01:14:25.524Z,14.35
2022-12-23T01:16:52.798Z,18.63
2022-12-23T01:19:19.623Z,19.13
2022-12-23T01:21:46.457Z,16.60
2022-12-23T01:24:13.245Z,16.75
2022-12-23T01:26:39.876Z,17.13
2022-12-23T01:29:06.731Z,21.20
2022-12-23T01:31:33.480Z,18.75
2022-12-23T01:34:00.247Z,17.50
2022-12-23T01:36:27.110Z,17.10
2022-12-23T01:38:56.037Z,19.27
2022-12-23T01:41:49.946Z,22.45
2022-12-23T01:44:55.292Z,18.10
2022-12-23T01:47:24.209Z,15.25
2022-12-23T01:49:59.430Z,20.85
2022-12-23T01:52:27.655Z,16.88
2022-12-23T01:54:55.989Z,20.08
2022-12-23T01:57:23.659Z,24.95
2022-12-23T02:00:09.006Z,17.13
2022-12-23T02:02:56.711Z,18.40
2022-12-23T02:05:23.916Z,19.23
2022-12-23T02:08:11.879Z,22.35
2022-12-23T02:11:06.279Z,17.15
2022-12-23T02:14:20.640Z,22.40
2022-12-23T02:16:55.108Z,17.58
2022-12-23T02:20:00.533Z,17.65
2022-12-23T02:23:04.656Z,21.90
2022-12-23T02:25:46.244Z,20.50
2022-12-23T02:28:49.743Z,19.95
2022-12-23T02:31:22.533Z,22.67
2022-12-23T02:34:29.972Z,22.13
2022-12-23T02:37:12.233Z,16.27
2022-12-23T02:39:47.628Z,19.92
2022-12-23T02:42:25.663Z,25.00
2022-12-23T02:45:04.402Z,26.30
2022-12-23T02:47:46.766Z,20.20
2022-12-23T02:50:31.199Z,22.92
2022-12-23T02:53:08.268Z,21.77
2022-12-23T02:55:38.040Z,17.27
2022-12-23T02:58:08.107Z,20.77
2022-12-23T03:00:35.742Z,20.85
2022-12-23T03:03:02.975Z,20.77
2022-12-23T03:05:36.461Z,22.17
2022-12-23T03:08:06.430Z,22.30
2022-12-23T03:10:59.054Z,24.90
2022-12-23T03:13:34.280Z,19.75
2022-12-23T03:16:17.879Z,24.02
2022-12-23T03:19:16.005Z,25.60
2022-12-23T03:21:53.552Z,23.25
2022-12-23T03:24:44.565Z,20.98
2022-12-23T03:27:27.383Z,24.42
2022-12-23T03:30:01.983Z,23.00
2022-12-23T03:32:33.288Z,26.35
2022-12-23T03:35:02.339Z,26.67
2022-12-23T03:37:32.005Z,19.45
2022-12-23T03:40:10.252Z,23.77
2022-12-23T03:42:40.501Z,20.23
2022-12-23T03:45:40.666Z,23.90
2022-12-23T03:48:19.369Z,27.13
2022-12-23T03:50:49.338Z,22.77
2022-12-23T03:53:30.288Z,26.02
2022-12-23T03:56:04.985Z,21.90
2022-12-23T03:58:48.364Z,26.05
2022-12-23T04:01:33.281Z,22.58
2022-12-23T04:04:25.919Z,23.40
2022-12-23T04:07:06.948Z,20.80
2022-12-23T04:09:35.857Z,21.60
2022-12-23T04:12:02.888Z,24.73
2022-12-23T04:14:30.319Z,20.00
2022-12-23T04:16:59.160Z,22.80
2022-12-23T04:19:26.044Z,19.35
2022-12-23T04:21:55.925Z,20.52
2022-12-23T04:24:23.049Z,25.75
2022-12-23T04:26:49.703Z,18.90
2022-12-23T04:29:16.503Z,22.10
2022-12-23T04:31:43.347Z,22.17
2022-12-23T04:34:10.266Z,18.77
2022-12-23T04:36:36.904Z,20.33
2022-12-23T04:39:03.815Z,17.75
2022-12-23T04:41:30.600Z,16.08
2022-12-23T04:43:57.315Z,21.70
2022-12-23T04:46:24.033Z,20.20
2022-12-23T04:48:50.943Z,19.17
2022-12-23T04:51:17.604Z,19.95
2022-12-23T04:53:44.318Z,23.63
2022-12-23T04:56:11.401Z,21.95
2022-12-23T04:58:38.329Z,18.50
2022-12-23T05:01:08.388Z,23.80
2022-12-23T05:03:35.990Z,22.58
2022-12-23T05:06:03.036Z,18.58
2022-12-23T05:08:29.795Z,21.40
2022-12-23T05:10:57.187Z,19.88
2022-12-23T05:13:24.302Z,20.42
2022-12-23T05:15:52.871Z,22.02
2022-12-23T05:18:20.852Z,20.17
2022-12-23T05:20:48.383Z,26.27
2022-12-23T05:23:15.021Z,25.17
2022-12-23T05:25:41.782Z,28.00
2022-12-23T05:28:09.439Z,23.73
2022-12-23T05:30:36.408Z,22.17
2022-12-23T05:33:03.179Z,23.70
2022-12-23T05:35:29.885Z,23.30
2022-12-23T05:37:57.602Z,21.45
2022-12-23T05:40:27.084Z,21.95
2022-12-23T05:42:59.051Z,21.25
2022-12-23T05:45:25.933Z,32.40
2022-12-23T05:47:52.762Z,21.02
2022-12-23T05:50:19.442Z,22.15
2022-12-23T05:52:49.186Z,21.13
2022-12-23T05:55:16.038Z,23.02
2022-12-23T05:57:42.917Z,17.45
2022-12-23T06:00:10.192Z,22.02
2022-12-23T06:02:40.489Z,22.50
2022-12-23T06:05:07.761Z,22.33
2022-12-23T06:07:34.518Z,22.30
2022-12-23T06:10:01.165Z,22.33
2022-12-23T06:12:27.914Z,22.70
2022-12-23T06:14:54.565Z,20.70
2022-12-23T06:17:21.215Z,21.77
2022-12-23T06:19:48.452Z,27.23
2022-12-23T06:22:15.993Z,20.02
2022-12-23T06:24:42.778Z,21.85
2022-12-23T06:27:09.530Z,21.30
2022-12-23T06:29:36.245Z,26.27
2022-12-23T06:32:03.160Z,23.38
2022-12-23T06:34:30.480Z,24.80
2022-12-23T06:36:57.545Z,21.52
2022-12-23T06:39:24.701Z,20.27
2022-12-23T06:41:51.423Z,26.23
2022-12-23T06:44:18.603Z,19.45
2022-12-23T06:46:45.486Z,24.45
2022-12-23T06:49:13.728Z,24.50
2022-12-23T06:51:41.204Z,23.13
2022-12-23T06:54:11.865Z,23.48
2022-12-23T06:56:39.569Z,19.85
2022-12-23T06:59:06.320Z,18.65
2022-12-23T07:01:33.161Z,20.48
2022-12-23T07:03:59.957Z,20.30
2022-12-23T07:06:26.638Z,21.33
2022-12-23T07:08:53.307Z,21.00
2022-12-23T07:11:20.089Z,26.65
2022-12-23T07:13:46.973Z,22.80
2022-12-23T07:16:13.868Z,19.30
2022-12-23T07:18:40.578Z,25.30
2022-12-23T07:21:15.560Z,20.98
2022-12-23T07:23:47.826Z,21.58
2022-12-23T07:26:14.579Z,23.55
2022-12-23T07:28:44.743Z,24.35
2022-12-23T07:31:11.682Z,22.05
2022-12-23T07:33:38.430Z,22.42
2022-12-23T07:36:05.321Z,22.33
2022-12-23T07:38:32.086Z,24.52
2022-12-23T07:40:58.823Z,25.92
2022-12-23T07:43:25.558Z,28.60
2022-12-23T07:45:59.208Z,32.92
2022-12-23T07:48:26.812Z,26.40
2022-12-23T07:50:53.443Z,23.08
2022-12-23T07:53:20.292Z,25.65
2022-12-23T07:55:51.553Z,28.52
2022-12-23T07:58:21.325Z,27.55
2022-12-23T08:00:48.083Z,20.77
2022-12-23T08:03:15.023Z,33.70
2022-12-23T08:05:41.810Z,29.10
2022-12-23T08:08:08.516Z,32.60
2022-12-23T08:10:35.306Z,22.92
2022-12-23T08:13:02.364Z,27.70
2022-12-23T08:15:28.994Z,28.23
2022-12-23T08:17:56.524Z,27.52
2022-12-23T08:20:23.259Z,29.02
2022-12-23T08:22:49.902Z,31.58
2022-12-23T08:25:16.735Z,26.48
2022-12-23T08:27:43.423Z,28.02
2022-12-23T08:30:10.651Z,23.77
2022-12-23T08:32:37.338Z,24.63
2022-12-23T08:35:04.301Z,24.38
2022-12-23T08:37:30.957Z,22.52
2022-12-23T08:39:57.653Z,22.80
2022-12-23T08:42:24.439Z,24.90
2022-12-23T08:44:51.091Z,18.13
2022-12-23T08:47:17.751Z,30.67
2022-12-23T08:49:44.447Z,22.05
2022-12-23T08:52:11.152Z,23.48
2022-12-23T08:54:37.806Z,26.63
2022-12-23T08:57:04.497Z,20.10
2022-12-23T08:59:31.165Z,28.83
2022-12-23T09:01:59.651Z,24.65
2022-12-23T09:04:26.541Z,19.65
2022-12-23T09:06:53.405Z,24.27
2022-12-23T09:09:20.105Z,20.23
2022-12-23T09:11:46.845Z,26.48
2022-12-23T09:14:13.643Z,21.42
2022-12-23T09:16:40.419Z,17.10
2022-12-23T09:19:07.759Z,22.98
2022-12-23T09:21:34.901Z,21.50
2022-12-23T09:24:01.666Z,23.20
2022-12-23T09:26:30.515Z,17.75
2022-12-23T09:28:57.796Z,22.25
2022-12-23T09:31:27.995Z,23.55
2022-12-23T09:33:59.238Z,20.33
2022-12-23T09:36:25.906Z,24.73
2022-12-23T09:38:57.001Z,17.90
2022-12-23T09:41:42.732Z,20.42
2022-12-23T09:44:30.472Z,21.58
2022-12-23T09:47:01.771Z,24.98
2022-12-23T09:49:28.867Z,22.00
2022-12-23T09:52:01.352Z,17.83
2022-12-23T09:54:33.116Z,18.85
2022-12-23T09:57:26.931Z,21.42
2022-12-23T10:00:16.680Z,24.63
2022-12-23T10:03:00.347Z,19.35
2022-12-23T10:05:52.403Z,16.70
2022-12-23T10:08:46.593Z,18.10
2022-12-23T10:11:20.209Z,21.80
2022-12-23T10:14:00.450Z,19.20
2022-12-23T10:16:39.650Z,21.55
2022-12-23T10:19:27.879Z,19.88
2022-12-23T10:22:09.974Z,26.52
2022-12-23T10:24:41.234Z,18.30
2022-12-23T10:27:32.058Z,26.50
2022-12-23T10:30:19.987Z,24.88
2022-12-23T10:33:02.306Z,29.83
2022-12-23T10:35:48.814Z,22.42
2022-12-23T10:38:32.323Z,22.27
2022-12-23T10:41:17.984Z,19.73
2022-12-23T10:44:20.013Z,17.10
2022-12-23T10:49:53.064Z,20.80
2022-12-23T10:52:22.989Z,17.60
2022-12-23T10:54:49.799Z,17.88
2022-12-23T10:57:18.429Z,16.83
2022-12-23T10:59:45.398Z,17.08
2022-12-23T11:02:12.313Z,15.65
2022-12-23T11:04:43.681Z,11.73
2022-12-23T11:07:43.978Z,15.88
2022-12-23T11:10:20.684Z,13.68
2022-12-23T11:12:53.804Z,14.00
2022-12-23T11:15:36.370Z,11.80
2022-12-23T11:18:18.835Z,13.35
2022-12-23T11:21:01.998Z,17.15
2022-12-23T11:23:32.030Z,19.48
2022-12-23T11:26:03.583Z,12.15
2022-12-23T11:28:32.615Z,14.73
2022-12-23T11:31:07.981Z,15.27
2022-12-23T11:33:38.345Z,14.68
2022-12-23T11:36:16.502Z,20.15
2022-12-23T11:38:52.203Z,14.93
2022-12-23T11:41:26.534Z,17.38
2022-12-23T11:43:58.829Z,15.82
2022-12-23T11:46:29.463Z,14.13
2022-12-23T11:49:21.475Z,14.55
2022-12-23T11:54:26.616Z,13.88
2022-12-23T11:56:54.554Z,11.13
2022-12-23T11:59:24.309Z,13.63
2022-12-23T12:01:51.143Z,16.02
2022-12-23T12:04:22.251Z,11.25
2022-12-23T12:06:56.048Z,13.60
2022-12-23T12:09:24.669Z,14.75
2022-12-23T12:12:16.862Z,10.90
2022-12-23T12:14:50.361Z,14.07
2022-12-23T12:17:44.173Z,12.45
2022-12-23T12:20:19.449Z,15.60
2022-12-23T12:22:54.840Z,13.57
2022-12-23T12:25:25.536Z,12.55
2022-12-23T12:27:59.626Z,13.90
2022-12-23T12:30:36.579Z,17.05
2022-12-23T12:33:13.669Z,20.27
2022-12-23T12:35:53.900Z,14.48
2022-12-23T12:38:33.185Z,18.30
2022-12-23T12:41:18.594Z,12.13
2022-12-23T12:44:04.427Z,14.25
2022-12-23T12:46:42.220Z,12.65
2022-12-23T12:49:20.571Z,12.77
2022-12-23T12:51:50.458Z,16.48
2022-12-23T12:54:35.099Z,16.02
2022-12-23T12:57:02.364Z,18.08
2022-12-23T12:59:33.382Z,12.65
2022-12-23T13:02:15.210Z,14.73
2022-12-23T13:04:48.431Z,16.58
2022-12-23T13:07:39.026Z,23.15
2022-12-23T13:10:23.632Z,18.08
2022-12-23T13:13:10.597Z,14.50
2022-12-23T13:16:03.256Z,16.92
2022-12-23T13:18:40.585Z,9.00
2022-12-23T13:21:28.166Z,17.90
2022-12-23T13:24:04.062Z,17.40
2022-12-23T13:26:51.210Z,14.32
2022-12-23T13:29:36.140Z,11.10
2022-12-23T13:32:18.830Z,15.18
2022-12-23T13:34:51.279Z,13.38
2022-12-23T13:37:36.250Z,14.13
2022-12-23T13:40:24.292Z,11.68
2022-12-23T13:42:55.771Z,12.23
2022-12-23T13:45:26.606Z,12.70
2022-12-23T13:48:30.167Z,11.37
2022-12-23T13:51:20.592Z,9.43
2022-12-23T13:54:13.838Z,8.82
2022-12-23T13:56:55.498Z,8.23
2022-12-23T13:59:22.197Z,6.88
2022-12-23T14:01:52.520Z,6.88
2022-12-23T14:04:33.107Z,7.93
2022-12-23T14:07:19.293Z,7.47
2022-12-23T14:10:00.095Z,8.80
2022-12-23T14:12:29.428Z,6.57
2022-12-23T14:15:29.057Z,10.02
2022-12-23T14:18:28.041Z,7.95
2022-12-23T14:21:12.766Z,11.23
2022-12-23T14:24:00.844Z,9.63
2022-12-23T14:26:52.554Z,8.03
2022-12-23T14:29:38.073Z,7.70
2022-12-23T14:32:05.120Z,9.18
2022-12-23T14:34:33.454Z,9.73
2022-12-23T14:37:23.588Z,8.82
2022-12-23T14:39:51.456Z,9.30
2022-12-23T14:42:42.527Z,8.20
2022-12-23T14:45:41.214Z,10.03
2022-12-23T14:48:36.106Z,8.30
2022-12-23T14:51:37.437Z,9.43
2022-12-23T14:54:07.012Z,7.53
2022-12-23T14:56:40.179Z,5.72
2022-12-23T14:59:22.115Z,7.53
2022-12-23T15:01:53.766Z,7.38
2022-12-23T15:06:57.197Z,11.07
2022-12-23T15:09:27.806Z,6.85
2022-12-23T15:11:56.017Z,6.70
2022-12-23T15:14:38.221Z,7.50
2022-12-23T15:17:32.429Z,8.70
2022-12-23T15:20:14.761Z,6.03
2022-12-23T15:22:44.575Z,5.55
2022-12-23T15:25:31.396Z,5.55
2022-12-23T15:28:02.241Z,7.25
2022-12-23T15:30:46.040Z,10.13
2022-12-23T15:34:00.244Z,4.72
2022-12-23T15:36:06.447Z,6.45
2022-12-23T15:38:37.546Z,6.63
2022-12-23T15:41:13.327Z,6.22
2022-12-23T15:43:43.630Z,6.63
2022-12-23T15:46:21.889Z,6.78
2022-12-23T15:48:52.273Z,5.00
2022-12-23T15:51:57.655Z,5.93
2022-12-23T15:54:29.773Z,5.68
2022-12-23T15:56:58.719Z,4.50
2022-12-23T15:59:38.046Z,4.47
2022-12-23T16:05:30.527Z,4.50
2022-12-23T16:08:16.110Z,4.40
2022-12-23T16:10:55.254Z,4.72
2022-12-23T16:13:21.914Z,4.50
2022-12-23T16:15:48.718Z,3.55
2022-12-23T16:18:32.693Z,4.03
2022-12-23T16:21:02.197Z,5.75
2022-12-23T16:23:30.767Z,6.47
2022-12-23T16:25:59.815Z,4.35
2022-12-23T16:28:29.832Z,4.28
2022-12-23T16:30:58.250Z,5.22
2022-12-23T16:33:47.622Z,5.75
2022-12-23T16:36:26.842Z,6.53
2022-12-23T16:39:08.658Z,6.75
2022-12-23T16:41:35.692Z,6.10
2022-12-23T16:44:03.536Z,7.18
2022-12-23T16:46:35.883Z,7.07
2022-12-23T16:49:05.343Z,6.32
2022-12-23T16:51:34.096Z,5.25
2022-12-23T16:54:01.482Z,6.68
2022-12-23T16:56:35.011Z,7.30
2022-12-23T16:59:01.998Z,8.25
2022-12-23T17:01:32.127Z,4.55
2022-12-23T17:03:59.016Z,6.25
2022-12-23T17:06:26.393Z,7.38
2022-12-23T17:08:53.705Z,11.40
2022-12-23T17:11:36.308Z,13.63
2022-12-23T17:14:05.789Z,12.80
2022-12-23T17:16:36.029Z,9.88
2022-12-23T17:19:02.901Z,16.73
2022-12-23T17:21:33.276Z,15.68
2022-12-23T17:24:23.987Z,18.02
2022-12-23T17:26:51.971Z,14.48
2022-12-23T17:29:18.822Z,15.00
2022-12-23T17:31:48.319Z,12.88
2022-12-23T17:34:23.931Z,17.08
2022-12-23T17:36:51.496Z,14.77
2022-12-23T17:39:19.146Z,16.80
2022-12-23T17:41:46.208Z,13.90
2022-12-23T17:44:17.419Z,18.35
2022-12-23T17:46:45.684Z,17.55
2022-12-23T17:49:12.607Z,17.33
2022-12-23T17:51:40.276Z,16.73
2022-12-23T17:54:09.470Z,16.13
2022-12-23T17:56:36.208Z,21.58
2022-12-23T17:59:02.938Z,21.50
2022-12-23T18:01:32.098Z,13.88
2022-12-23T18:04:00.132Z,18.20
2022-12-23T18:06:28.697Z,20.02
2022-12-23T18:08:59.172Z,15.90
2022-12-23T18:11:28.623Z,21.20
2022-12-23T18:13:55.408Z,20.70
2022-12-23T18:16:22.176Z,19.52
2022-12-23T18:18:48.937Z,24.50
2022-12-23T18:21:25.315Z,31.90
2022-12-23T18:23:54.624Z,24.13
2022-12-23T18:26:21.450Z,20.88
2022-12-23T18:28:48.378Z,24.88
2022-12-23T18:31:18.421Z,21.77
2022-12-23T18:33:45.800Z,21.08
2022-12-23T18:36:33.754Z,31.77
2022-12-23T18:39:00.643Z,33.92
2022-12-23T18:41:27.483Z,29.13
2022-12-23T18:43:55.000Z,22.33
2022-12-23T18:46:23.031Z,25.85
2022-12-23T18:48:49.798Z,30.00
2022-12-23T18:51:18.469Z,29.40
2022-12-23T18:53:46.567Z,24.25
2022-12-23T18:56:19.106Z,28.33
2022-12-23T18:58:45.890Z,22.52
2022-12-23T19:01:14.256Z,27.38
2022-12-23T19:03:41.719Z,31.17
2022-12-23T19:06:11.635Z,35.03
2022-12-23T19:08:39.145Z,26.67
2022-12-23T19:11:17.807Z,30.10
2022-12-23T19:13:45.020Z,35.90
2022-12-23T19:16:19.977Z,24.42
2022-12-23T19:18:48.426Z,28.10
2022-12-23T19:21:16.933Z,24.73
2022-12-23T19:23:44.181Z,32.17
2022-12-23T19:26:12.733Z,25.80
2022-12-23T19:28:41.286Z,24.75
2022-12-23T19:31:09.780Z,28.55
2022-12-23T19:33:40.814Z,27.33
2022-12-23T19:36:12.090Z,26.65
2022-12-23T19:38:39.393Z,30.13
2022-12-23T19:41:07.285Z,31.90
2022-12-23T19:43:35.350Z,21.95
2022-12-23T19:46:05.008Z,26.75
2022-12-23T19:48:31.838Z,27.35
2022-12-23T19:51:01.701Z,33.10
2022-12-23T19:53:28.689Z,30.35
2022-12-23T19:55:59.573Z,29.48
2022-12-23T19:58:27.341Z,29.33
2022-12-23T20:01:15.277Z,32.00
2022-12-23T20:03:43.369Z,24.55
2022-12-23T20:06:29.525Z,20.67
2022-12-23T20:09:00.796Z,26.42
2022-12-23T20:11:30.289Z,24.83
2022-12-23T20:13:57.231Z,30.92
2022-12-23T20:16:24.303Z,25.48
2022-12-23T20:18:51.262Z,28.13
2022-12-23T20:21:18.230Z,29.38
2022-12-23T20:23:45.315Z,24.58
2022-12-23T20:26:13.314Z,24.48
2022-12-23T20:28:40.334Z,26.13
2022-12-23T20:31:19.590Z,30.33
2022-12-23T20:33:47.680Z,38.25
2022-12-23T20:36:16.310Z,40.17
2022-12-23T20:38:44.540Z,34.80
2022-12-23T20:41:15.722Z,28.58
2022-12-23T20:43:46.048Z,31.63
2022-12-23T20:46:20.312Z,33.13
2022-12-23T20:48:47.738Z,28.45
2022-12-23T20:51:25.647Z,32.85
2022-12-23T20:53:55.566Z,34.53
2022-12-23T20:56:27.384Z,35.53
2022-12-23T20:58:54.972Z,41.80
2022-12-23T21:01:29.325Z,35.75
2022-12-23T21:03:57.427Z,33.30
2022-12-23T21:06:24.981Z,30.95
2022-12-23T21:08:52.333Z,36.85
2022-12-23T21:11:19.456Z,28.77
2022-12-23T21:13:49.892Z,22.65
2022-12-23T21:16:16.787Z,23.48
2022-12-23T21:18:46.143Z,31.58
2022-12-23T21:21:13.143Z,31.48
2022-12-23T21:23:41.237Z,26.75
2022-12-23T21:26:18.190Z,26.15
2022-12-23T21:28:46.468Z,25.80
2022-12-23T21:31:15.947Z,34.05
2022-12-23T21:33:44.906Z,28.50
2022-12-23T21:36:19.826Z,30.42
2022-12-23T21:38:47.979Z,23.65
2022-12-23T21:41:20.402Z,33.97
2022-12-23T21:43:47.665Z,23.23
2022-12-23T21:46:16.416Z,25.73
2022-12-23T21:48:43.391Z,26.58
2022-12-23T21:51:16.844Z,25.73
2022-12-23T21:53:45.138Z,27.85
2022-12-23T21:56:17.820Z,32.70
2022-12-23T21:58:45.635Z,26.17
2022-12-23T22:01:18.227Z,27.65
2022-12-23T22:03:47.215Z,33.25
2022-12-23T22:06:16.682Z,33.72
2022-12-23T22:08:43.897Z,31.48
2022-12-23T22:11:16.779Z,36.28
2022-12-23T22:13:44.419Z,32.03
2022-12-23T22:16:14.122Z,34.33
2022-12-23T22:18:41.846Z,29.52
2022-12-23T22:21:12.310Z,27.00
2022-12-23T22:23:39.358Z,24.33
2022-12-23T22:26:07.055Z,34.58
2022-12-23T22:28:36.064Z,33.17
2022-12-23T22:31:05.176Z,31.30
2022-12-23T22:33:32.579Z,29.65
2022-12-23T22:35:59.721Z,23.40
2022-12-23T22:38:26.696Z,26.58
2022-12-23T22:40:53.947Z,29.85
2022-12-23T22:43:20.878Z,22.75
2022-12-23T22:45:54.672Z,26.77
2022-12-23T22:48:21.480Z,28.42
2022-12-23T22:50:48.146Z,22.42
2022-12-23T22:53:15.527Z,35.45
2022-12-23T22:55:42.353Z,25.48
2022-12-23T22:58:08.960Z,27.25
2022-12-23T23:00:35.912Z,34.95
2022-12-23T23:03:03.689Z,26.25
2022-12-23T23:05:30.375Z,30.48
2022-12-23T23:07:57.046Z,33.45
2022-12-23T23:10:23.857Z,26.15
2022-12-23T23:12:50.515Z,24.02
2022-12-23T23:15:17.264Z,35.63
2022-12-23T23:17:43.937Z,24.75
2022-12-23T23:20:11.166Z,35.25
2022-12-23T23:22:38.088Z,28.05
2022-12-23T23:25:05.181Z,26.38
2022-12-23T23:27:31.926Z,28.13
2022-12-23T23:29:58.620Z,21.20
2022-12-23T23:32:25.294Z,32.60
2022-12-23T23:34:51.980Z,30.15
2022-12-23T23:37:18.677Z,31.10
2022-12-23T23:39:45.387Z,24.00
2022-12-23T23:42:12.113Z,30.25
2022-12-23T23:44:38.742Z,39.58
2022-12-23T23:47:05.417Z,26.58
2022-12-23T23:49:32.118Z,29.63
2022-12-23T23:51:58.787Z,33.25
2022-12-23T23:54:25.649Z,32.75
2022-12-23T23:56:52.334Z,33.72
2022-12-23T23:59:19.097Z,27.17
